Time;durP1;ratioP1;P1;durP2;ratioP2;P2;SDS_P1;SDS_P2;PMS_P1;PMS_P2;Temp;Humidity;BMP_temperature;BMP_pressure;BME280_temperature;BME280_humidity;BME280_pressure;Samples;Min_cycle;Max_cycle;Signal;HPM_P1;HPM_P2
2024/03/24 00:00:31;;;;;;;13.07;6.07;;;3.70;99.90;;;;;;12481352;28;20061;-86
2024/03/24 00:06:32;;;;;;;7.35;5.95;;;3.70;99.90;;;;;;12454543;28;20760;-84
2024/03/24 00:12:33;;;;;;;10.70;7.05;;;3.60;99.90;;;;;;12481321;28;20498;-85
2024/03/24 00:18:34;;;;;;;10.55;7.28;;;3.60;99.90;;;;;;12458498;28;20137;-84
2024/03/24 00:24:35;;;;;;;12.75;8.35;;;3.60;99.90;;;;;;12451434;28;20053;-85
2024/03/24 00:30:35;;;;;;;14.65;8.45;;;3.70;99.90;;;;;;12459189;28;20061;-85
2024/03/24 00:36:36;;;;;;;15.80;8.95;;;3.70;99.90;;;;;;12460678;28;20077;-86
2024/03/24 00:42:37;;;;;;;15.57;9.57;;;3.60;99.90;;;;;;12459289;28;20430;-84
2024/03/24 00:48:38;;;;;;;14.40;9.00;;;3.70;99.90;;;;;;12473232;28;20072;-85
2024/03/24 00:54:39;;;;;;;15.32;9.30;;;3.80;99.90;;;;;;12476033;28;20058;-84
2024/03/24 01:00:40;;;;;;;15.85;8.95;;;3.90;99.90;;;;;;12497453;28;20067;-86
2024/03/24 01:06:41;;;;;;;18.83;9.30;;;3.90;99.90;;;;;;12508484;28;20413;-85
2024/03/24 01:12:43;;;;;;;13.77;8.82;;;3.90;99.90;;;;;;12542421;28;20049;-85
2024/03/24 01:18:44;;;;;;;17.65;9.70;;;3.90;99.90;;;;;;12520979;28;20052;-83
2024/03/24 01:24:45;;;;;;;12.23;8.38;;;3.80;99.90;;;;;;12515201;28;20068;-84
2024/03/24 01:30:46;;;;;;;17.48;9.00;;;3.80;99.90;;;;;;12519321;28;20472;-84
2024/03/24 01:36:47;;;;;;;13.50;9.48;;;3.80;99.90;;;;;;12502468;28;20501;-83
2024/03/24 01:42:48;;;;;;;13.35;8.52;;;3.90;99.90;;;;;;12513446;28;20056;-79
2024/03/24 01:48:50;;;;;;;18.80;10.30;;;4.00;99.90;;;;;;12514938;28;20557;-80
2024/03/24 01:54:52;;;;;;;17.00;10.20;;;4.00;99.90;;;;;;12503480;28;20060;-79
2024/03/24 02:00:53;;;;;;;15.45;10.10;;;4.10;99.90;;;;;;12518735;28;20509;-78
2024/03/24 02:06:53;;;;;;;17.50;11.40;;;4.10;99.90;;;;;;12502670;28;20041;-77
2024/03/24 02:12:54;;;;;;;14.38;10.00;;;4.10;99.90;;;;;;12519208;28;20068;-78
2024/03/24 02:18:56;;;;;;;18.80;11.75;;;4.30;99.90;;;;;;12504296;28;20061;-77
2024/03/24 02:24:56;;;;;;;18.45;10.90;;;4.30;99.90;;;;;;12514186;28;20355;-78
2024/03/24 02:30:57;;;;;;;15.77;10.70;;;4.40;99.90;;;;;;12521799;28;20052;-78
2024/03/24 02:36:58;;;;;;;16.58;11.45;;;4.50;99.90;;;;;;12503795;28;20048;-77
2024/03/24 02:42:59;;;;;;;18.00;11.52;;;4.50;99.90;;;;;;12515071;28;20045;-78
2024/03/24 02:49:00;;;;;;;17.77;10.95;;;4.50;99.90;;;;;;12509561;28;20049;-79
2024/03/24 02:55:01;;;;;;;16.23;10.38;;;4.50;99.90;;;;;;12523767;28;20060;-83
2024/03/24 03:01:02;;;;;;;16.48;9.80;;;4.50;99.90;;;;;;12477383;28;1107942;-82
2024/03/24 03:07:03;;;;;;;17.80;10.45;;;4.40;99.90;;;;;;12492415;28;20068;-82
2024/03/24 03:13:04;;;;;;;14.77;10.40;;;4.40;99.90;;;;;;12506351;28;20060;-82
2024/03/24 03:19:05;;;;;;;15.20;9.70;;;4.30;99.90;;;;;;12494655;28;20504;-81
2024/03/24 03:25:07;;;;;;;17.85;9.95;;;4.40;99.90;;;;;;12504890;28;20056;-81
2024/03/24 03:31:08;;;;;;;12.75;9.30;;;4.50;99.90;;;;;;12508400;28;20159;-83
2024/03/24 03:37:09;;;;;;;14.15;8.90;;;4.50;99.90;;;;;;12515110;28;20190;-82
2024/03/24 03:43:12;;;;;;;13.57;8.85;;;4.40;99.90;;;;;;12524146;28;20049;-82
2024/03/24 03:49:15;;;;;;;15.32;8.30;;;4.30;99.90;;;;;;12513888;28;20041;-81
2024/03/24 03:55:17;;;;;;;13.32;7.90;;;4.30;99.90;;;;;;12499610;28;20493;-81
2024/03/24 04:01:17;;;;;;;14.00;8.38;;;4.20;99.90;;;;;;12510185;28;20056;-80
2024/03/24 04:07:18;;;;;;;13.45;9.13;;;4.10;99.90;;;;;;12510136;28;20088;-82
2024/03/24 04:13:19;;;;;;;13.27;8.48;;;4.10;99.90;;;;;;12509637;28;20056;-78
2024/03/24 04:19:20;;;;;;;12.90;8.05;;;4.10;99.90;;;;;;12514208;28;20060;-79
2024/03/24 04:25:21;;;;;;;11.82;7.75;;;4.00;99.90;;;;;;12520787;28;20051;-76
2024/03/24 04:31:22;;;;;;;9.65;7.63;;;4.00;99.90;;;;;;12529214;28;20416;-76
2024/03/24 04:37:24;;;;;;;10.13;7.35;;;4.00;99.90;;;;;;12531677;28;20061;-79
2024/03/24 04:43:26;;;;;;;16.63;9.38;;;4.00;99.90;;;;;;12506130;28;20057;-77
2024/03/24 04:49:27;;;;;;;10.70;7.97;;;4.00;99.90;;;;;;12516012;28;20103;-77
2024/03/24 04:55:29;;;;;;;13.80;10.40;;;4.00;99.90;;;;;;12529993;28;20182;-76
2024/03/24 05:01:30;;;;;;;13.05;9.73;;;4.00;99.90;;;;;;12534080;28;20053;-77
2024/03/24 05:07:31;;;;;;;14.70;9.70;;;4.10;99.90;;;;;;12530961;28;20049;-76
2024/03/24 05:13:32;;;;;;;13.88;10.23;;;4.10;99.90;;;;;;12516172;28;20057;-78
2024/03/24 05:19:33;;;;;;;15.63;11.70;;;4.10;99.90;;;;;;12533232;28;20057;-76
2024/03/24 05:25:38;;;;;;;15.55;11.48;;;4.10;99.90;;;;;;12508334;28;20053;-77
2024/03/24 05:31:50;;;;;;;14.98;11.48;;;4.10;99.90;;;;;;12514550;28;20128;-77
2024/03/24 05:37:51;;;;;;;15.98;11.80;;;4.10;99.90;;;;;;12522920;28;20064;-79
2024/03/24 05:43:52;;;;;;;14.75;11.65;;;4.20;99.90;;;;;;12498327;28;20391;-80
2024/03/24 05:49:53;;;;;;;18.08;11.95;;;4.20;99.90;;;;;;12504822;28;20040;-81
2024/03/24 05:55:57;;;;;;;18.75;14.38;;;4.30;99.90;;;;;;12528025;28;20045;-79
2024/03/24 06:01:58;;;;;;;24.10;15.13;;;4.40;99.90;;;;;;12472318;28;20057;-79
2024/03/24 06:07:59;;;;;;;22.30;14.27;;;4.40;99.90;;;;;;12471722;28;20042;-80
2024/03/24 06:14:00;;;;;;;21.70;14.35;;;4.40;99.90;;;;;;12459602;28;20098;-79
2024/03/24 06:20:01;;;;;;;20.75;13.90;;;4.50;99.90;;;;;;12484037;28;20060;-79
2024/03/24 06:26:02;;;;;;;17.17;12.45;;;4.50;99.90;;;;;;12473976;28;20103;-76
2024/03/24 06:32:03;;;;;;;17.05;12.98;;;4.50;99.90;;;;;;12489491;28;20180;-77
2024/03/24 06:38:04;;;;;;;15.35;12.20;;;4.50;99.90;;;;;;12470815;28;20061;-77
2024/03/24 06:44:16;;;;;;;22.00;20.08;;;4.50;99.90;;;;;;12495617;28;20053;-80
2024/03/24 06:50:17;;;;;;;19.27;17.42;;;4.50;99.90;;;;;;12459539;28;20068;-80
2024/03/24 06:56:18;;;;;;;12.20;10.82;;;4.50;99.90;;;;;;12464331;28;20803;-85
2024/03/24 07:02:20;;;;;;;9.23;7.55;;;4.50;99.90;;;;;;12486214;28;20116;-86
2024/03/24 07:08:21;;;;;;;9.55;8.65;;;4.50;99.90;;;;;;12474558;28;20053;-81
2024/03/24 07:14:22;;;;;;;9.10;7.97;;;4.50;99.90;;;;;;12462571;28;20140;-85
2024/03/24 07:20:23;;;;;;;10.18;9.18;;;4.50;99.90;;;;;;12451767;28;20136;-87
2024/03/24 07:26:25;;;;;;;9.60;8.70;;;4.60;99.90;;;;;;12451744;28;20125;-85
2024/03/24 07:32:26;;;;;;;8.45;7.40;;;4.60;99.90;;;;;;12466914;28;20445;-86
2024/03/24 07:38:27;;;;;;;8.02;7.22;;;4.80;99.90;;;;;;12496106;28;20059;-79
2024/03/24 07:44:28;;;;;;;8.63;7.68;;;5.00;99.90;;;;;;12473539;28;20061;-78
2024/03/24 07:50:29;;;;;;;5.68;4.65;;;5.10;99.90;;;;;;12464556;28;20052;-77
2024/03/24 07:56:31;;;;;;;5.45;4.95;;;5.30;99.90;;;;;;12460679;28;20423;-78
2024/03/24 08:02:31;;;;;;;5.95;5.07;;;5.30;99.90;;;;;;12479215;28;20069;-79
2024/03/24 08:08:32;;;;;;;4.93;4.40;;;5.50;99.90;;;;;;12463714;28;20057;-83
2024/03/24 08:14:33;;;;;;;4.65;4.00;;;5.60;99.90;;;;;;12448205;28;20081;-84
2024/03/24 08:20:34;;;;;;;6.22;5.25;;;5.70;99.90;;;;;;12458364;28;20053;-86
2024/03/24 08:26:35;;;;;;;6.85;4.10;;;6.00;99.90;;;;;;12474565;28;20053;-84
2024/03/24 08:32:36;;;;;;;5.03;4.10;;;6.10;99.90;;;;;;12491387;28;20402;-80
2024/03/24 08:38:37;;;;;;;6.00;4.68;;;6.20;99.90;;;;;;12457444;28;20494;-83
2024/03/24 08:44:38;;;;;;;5.40;4.38;;;6.10;99.90;;;;;;12458041;28;20056;-80
2024/03/24 08:50:39;;;;;;;4.22;3.85;;;6.30;99.90;;;;;;12464860;28;20148;-81
2024/03/24 08:56:40;;;;;;;4.28;3.88;;;6.30;99.90;;;;;;12468888;28;20140;-80
2024/03/24 09:02:41;;;;;;;7.60;3.20;;;6.50;99.90;;;;;;12471244;28;20657;-79
2024/03/24 09:08:42;;;;;;;4.40;4.00;;;6.60;99.90;;;;;;12472457;28;20072;-82
2024/03/24 09:14:43;;;;;;;5.22;4.45;;;6.50;99.90;;;;;;12453829;28;20052;-81
2024/03/24 09:20:44;;;;;;;4.18;3.53;;;6.70;99.90;;;;;;12471820;28;20437;-81
2024/03/24 09:26:46;;;;;;;4.95;4.50;;;6.80;99.90;;;;;;12448328;28;20077;-82
2024/03/24 09:32:47;;;;;;;5.88;3.90;;;6.70;99.90;;;;;;12465168;28;20490;-82
2024/03/24 09:38:48;;;;;;;6.78;5.70;;;6.90;99.90;;;;;;12469171;28;20057;-81
2024/03/24 09:44:49;;;;;;;8.23;7.43;;;7.40;99.90;;;;;;12473112;28;20049;-80
2024/03/24 09:50:52;;;;;;;6.35;5.00;;;7.20;99.90;;;;;;12455663;28;20305;-80
2024/03/24 09:56:53;;;;;;;8.45;5.97;;;7.20;99.90;;;;;;12453078;28;20560;-84
2024/03/24 10:02:55;;;;;;;12.85;8.18;;;7.60;99.90;;;;;;12495144;28;20056;-86
2024/03/24 10:08:56;;;;;;;8.93;8.18;;;7.80;99.90;;;;;;12501521;28;20045;-87
2024/03/24 10:14:58;;;;;;;9.63;8.93;;;8.10;99.90;;;;;;12504576;28;20119;-85
2024/03/24 10:20:59;;;;;;;11.75;10.65;;;8.20;99.90;;;;;;12516382;28;20055;-84
2024/03/24 10:27:00;;;;;;;7.93;7.20;;;8.20;99.90;;;;;;12499428;28;20124;-85
2024/03/24 10:33:02;;;;;;;8.45;7.70;;;7.90;99.90;;;;;;12504587;28;20163;-83
2024/03/24 10:39:06;;;;;;;8.68;5.53;;;7.70;99.90;;;;;;12537507;28;20056;-80
2024/03/24 10:45:09;;;;;;;8.13;6.88;;;7.80;99.90;;;;;;12511963;28;20041;-81
2024/03/24 10:51:13;;;;;;;7.93;7.22;;;8.00;99.90;;;;;;12517985;28;20049;-82
2024/03/24 10:57:16;;;;;;;8.45;5.43;;;7.80;99.90;;;;;;12495507;28;20413;-85
2024/03/24 11:03:19;;;;;;;9.77;7.77;;;7.90;99.90;;;;;;12497169;28;20069;-83
2024/03/24 11:09:20;;;;;;;7.78;6.38;;;7.70;99.90;;;;;;12493017;28;20968;-82
2024/03/24 11:15:21;;;;;;;8.43;5.85;;;7.50;99.90;;;;;;12518282;28;20135;-81
2024/03/24 11:21:34;;;;;;;8.85;5.32;;;7.40;99.90;;;;;;12517794;28;20091;-81
2024/03/24 11:27:41;;;;;;;6.75;4.10;;;7.10;99.90;;;;;;12487109;28;20041;-82
2024/03/24 11:33:58;;;;;;;7.15;4.95;;;6.80;99.90;;;;;;12491841;28;20060;-81
2024/03/24 11:40:02;;;;;;;7.78;3.00;;;6.80;99.90;;;;;;12522064;28;20130;-79
2024/03/24 11:46:03;;;;;;;4.20;3.17;;;6.70;99.90;;;;;;12520984;28;20056;-81
2024/03/24 11:52:05;;;;;;;5.53;2.58;;;6.40;99.90;;;;;;12542008;28;20053;-82
2024/03/24 11:58:06;;;;;;;2.97;2.45;;;6.40;99.90;;;;;;12520960;28;20424;-82
2024/03/24 12:04:07;;;;;;;6.18;2.45;;;6.50;99.90;;;;;;12550116;28;20048;-82
2024/03/24 12:10:08;;;;;;;4.97;2.60;;;6.60;99.90;;;;;;12532429;28;20080;-82
2024/03/24 12:16:15;;;;;;;7.00;3.53;;;6.70;99.90;;;;;;12534034;28;20103;-79
2024/03/24 12:22:17;;;;;;;4.45;2.67;;;6.60;99.90;;;;;;12530764;28;20378;-79
2024/03/24 12:28:19;;;;;;;4.20;2.60;;;6.70;99.90;;;;;;12512433;28;20056;-81
2024/03/24 12:34:20;;;;;;;5.03;3.40;;;6.90;99.90;;;;;;12536971;28;20057;-80
2024/03/24 12:40:22;;;;;;;4.68;3.00;;;7.10;99.90;;;;;;12528046;28;20057;-77
2024/03/24 12:46:25;;;;;;;6.45;3.95;;;7.20;99.90;;;;;;12534002;28;20056;-79
2024/03/24 12:52:26;;;;;;;4.57;3.83;;;7.10;99.90;;;;;;12536928;28;20064;-79
2024/03/24 12:58:39;;;;;;;3.90;3.50;;;7.00;99.90;;;;;;12526382;28;20417;-78
2024/03/24 13:04:40;;;;;;;5.25;2.80;;;6.80;99.90;;;;;;12522502;28;20421;-79
2024/03/24 13:10:41;;;;;;;3.95;2.80;;;6.80;99.90;;;;;;12535028;28;20056;-79
2024/03/24 13:17:10;;;;;;;4.32;2.83;;;6.80;99.90;;;;;;12516050;28;20124;-79
2024/03/24 13:23:15;;;;;;;3.95;2.17;;;6.70;99.90;;;;;;12491980;28;20056;-82
2024/03/24 13:29:16;;;;;;;4.10;2.85;;;6.90;99.90;;;;;;12528309;28;20041;-79
2024/03/24 13:35:17;;;;;;;3.08;2.50;;;7.10;99.90;;;;;;12524864;28;20057;-81
2024/03/24 13:41:41;;;;;;;5.15;3.03;;;7.20;99.90;;;;;;12495453;28;20060;-82
2024/03/24 13:47:44;;;;;;;2.83;2.47;;;7.20;99.90;;;;;;12507880;28;20052;-80
2024/03/24 13:53:47;;;;;;;3.47;2.40;;;7.20;99.90;;;;;;12515938;28;20057;-81
2024/03/24 13:59:48;;;;;;;5.13;2.70;;;7.20;99.90;;;;;;12506207;28;20061;-87
2024/03/24 14:05:49;;;;;;;3.10;2.67;;;7.20;99.90;;;;;;12493840;28;20053;-85
2024/03/24 14:11:49;;;;;;;10.55;9.95;;;7.10;99.90;;;;;;12533556;28;20053;-85
2024/03/24 14:18:10;;;;;;;3.88;3.58;;;6.80;99.90;;;;;;12509442;28;20111;-79
2024/03/24 14:24:32;;;;;;;3.28;3.00;;;6.50;99.90;;;;;;12512285;28;20049;-79
2024/03/24 14:30:33;;;;;;;3.60;3.30;;;6.40;99.90;;;;;;12499372;28;20057;-79
2024/03/24 14:37:06;;;;;;;5.38;3.03;;;6.20;99.90;;;;;;12543069;28;20059;-87
2024/03/24 14:43:19;;;;;;;5.38;2.78;;;6.10;99.90;;;;;;12464353;28;20064;-82
2024/03/24 14:49:20;;;;;;;4.35;3.00;;;6.10;99.90;;;;;;12539349;28;20057;-83
2024/03/24 14:55:21;;;;;;;5.18;2.67;;;6.30;99.90;;;;;;12513124;28;20053;-88
2024/03/24 15:01:22;;;;;;;3.70;1.70;;;6.60;99.90;;;;;;12548539;28;20343;-83
2024/03/24 15:07:23;;;;;;;3.17;2.03;;;6.70;99.90;;;;;;12528427;28;20053;-81
2024/03/24 15:13:26;;;;;;;6.10;2.42;;;6.70;99.90;;;;;;12548827;28;20057;-85
2024/03/24 15:19:27;;;;;;;5.63;3.10;;;6.80;99.90;;;;;;12534681;28;20076;-87
2024/03/24 15:25:28;;;;;;;3.10;2.80;;;6.70;99.90;;;;;;12521358;28;20112;-82
2024/03/24 15:31:30;;;;;;;5.22;2.78;;;6.60;99.90;;;;;;12526933;28;20090;-84
2024/03/24 15:37:31;;;;;;;3.58;3.28;;;6.70;99.90;;;;;;12510687;28;20049;-83
2024/03/24 15:43:32;;;;;;;4.38;3.97;;;6.60;99.90;;;;;;12504804;28;20045;-82
2024/03/24 15:49:33;;;;;;;4.15;3.75;;;6.40;99.90;;;;;;12524265;28;20048;-82
2024/03/24 15:55:46;;;;;;;6.82;4.28;;;6.30;99.90;;;;;;12523925;28;20109;-79
2024/03/24 16:02:06;;;;;;;5.05;3.25;;;6.30;99.90;;;;;;12514789;28;20107;-82
2024/03/24 16:08:07;;;;;;;3.05;2.85;;;6.30;99.90;;;;;;12528442;28;20421;-82
2024/03/24 16:14:22;;;;;;;6.70;3.00;;;6.30;99.90;;;;;;12513116;28;20064;-83
2024/03/24 16:20:38;;;;;;;4.82;2.60;;;6.40;99.90;;;;;;12520671;28;20075;-85
2024/03/24 16:26:39;;;;;;;3.85;2.30;;;6.40;99.90;;;;;;12540592;28;20591;-81
2024/03/24 16:32:39;;;;;;;4.75;2.85;;;6.30;99.90;;;;;;12526880;28;20061;-83
2024/03/24 16:38:40;;;;;;;3.92;2.38;;;6.30;99.90;;;;;;12519475;28;20050;-88
2024/03/24 16:44:41;;;;;;;51.78;49.22;;;6.10;99.90;;;;;;12532063;28;20065;-86
2024/03/24 16:50:42;;;;;;;88.30;84.13;;;5.40;99.90;;;;;;12514309;28;20057;-79
2024/03/24 16:56:43;;;;;;;60.58;57.67;;;4.10;99.90;;;;;;12535545;28;20083;-81
2024/03/24 17:02:44;;;;;;;48.47;45.95;;;4.20;99.90;;;;;;12490667;28;20065;-85
2024/03/24 17:08:45;;;;;;;38.25;36.25;;;4.60;99.90;;;;;;12486715;28;20057;-89
2024/03/24 17:14:46;;;;;;;40.13;38.15;;;4.80;99.90;;;;;;12477150;28;20054;-85
2024/03/24 17:20:47;;;;;;;36.22;34.33;;;5.00;99.90;;;;;;12507627;28;20058;-87
2024/03/24 17:26:49;;;;;;;34.40;32.58;;;5.00;99.90;;;;;;12484559;28;20049;-87
2024/03/24 17:32:50;;;;;;;34.38;32.53;;;5.00;99.90;;;;;;12480260;28;20085;-85
2024/03/24 17:38:51;;;;;;;30.30;28.65;;;5.10;99.90;;;;;;12492275;28;20098;-84
2024/03/24 17:44:52;;;;;;;25.13;23.77;;;5.10;99.90;;;;;;12489046;28;20045;-87
2024/03/24 17:50:54;;;;;;;24.20;22.65;;;5.20;99.90;;;;;;12475154;28;20049;-86
2024/03/24 17:56:56;;;;;;;9.95;9.02;;;5.30;99.90;;;;;;12491131;28;20060;-83
2024/03/24 18:02:57;;;;;;;8.40;5.20;;;5.40;99.90;;;;;;12578138;28;20080;-81
2024/03/24 18:15:18;;;;;;;5.47;3.55;;;5.50;99.90;;;;;;12541939;28;20087;-87
2024/03/24 18:21:23;;;;;;;5.70;3.80;;;5.50;99.90;;;;;;12544530;28;20064;-90
2024/03/24 18:27:24;;;;;;;4.97;4.45;;;5.50;99.90;;;;;;12507427;28;20045;-87
2024/03/24 18:33:26;;;;;;;5.25;4.72;;;5.60;99.90;;;;;;12537064;28;20061;-85
2024/03/24 18:39:27;;;;;;;5.45;4.90;;;5.60;99.90;;;;;;12525847;28;20056;-89
2024/03/24 18:45:28;;;;;;;4.85;4.43;;;5.50;99.90;;;;;;12521702;28;20080;-85
2024/03/24 18:51:30;;;;;;;5.32;4.50;;;5.60;99.90;;;;;;12508579;28;20057;-86
2024/03/24 18:57:31;;;;;;;4.93;3.80;;;5.70;99.90;;;;;;12528297;28;20069;-85
2024/03/24 19:03:33;;;;;;;5.40;4.88;;;5.70;99.90;;;;;;12515001;28;20473;-90
2024/03/24 19:09:34;;;;;;;7.07;3.47;;;5.80;99.90;;;;;;12505327;28;20045;-88
2024/03/24 19:15:35;;;;;;;6.20;3.67;;;5.80;99.90;;;;;;12515767;28;20068;-84
2024/03/24 19:21:37;;;;;;;5.63;4.82;;;5.80;99.90;;;;;;12512672;28;20059;-81
2024/03/24 19:27:39;;;;;;;8.23;4.63;;;5.80;99.90;;;;;;12499902;28;20056;-81
2024/03/24 19:33:40;;;;;;;7.90;4.63;;;5.60;99.90;;;;;;12501823;28;20060;-81
2024/03/24 19:39:41;;;;;;;6.13;3.85;;;5.60;99.90;;;;;;12499716;28;20515;-81
2024/03/24 19:45:42;;;;;;;7.95;3.67;;;5.60;99.90;;;;;;12524627;28;20084;-80
2024/03/24 19:51:43;;;;;;;6.70;3.45;;;5.60;99.90;;;;;;12495496;28;20422;-83
2024/03/24 19:57:48;;;;;;;7.32;3.72;;;5.70;99.90;;;;;;12513286;28;20045;-87
2024/03/24 20:03:49;;;;;;;;;;;5.80;99.90;;;;;;12520764;28;20060;-82
2024/03/24 20:09:54;;;;;;;8.55;2.78;;;5.90;99.90;;;;;;12515400;28;19928;-82
2024/03/24 20:15:58;;;;;;;6.28;3.65;;;5.80;99.90;;;;;;12521694;28;20471;-82
2024/03/24 20:21:59;;;;;;;12.50;4.10;;;5.80;99.90;;;;;;12500951;28;20069;-82
2024/03/24 20:28:00;;;;;;;6.15;3.10;;;5.90;99.90;;;;;;12523870;28;20271;-82
2024/03/24 20:34:01;;;;;;;4.07;2.80;;;5.90;99.90;;;;;;12515899;28;20052;-83
2024/03/24 20:40:02;;;;;;;4.50;3.03;;;5.90;99.90;;;;;;12515148;28;20061;-82
2024/03/24 20:46:04;;;;;;;5.82;3.60;;;6.00;99.90;;;;;;12520243;28;20045;-82
2024/03/24 20:52:05;;;;;;;5.40;2.78;;;5.90;99.90;;;;;;12516831;28;20165;-83
2024/03/24 20:58:06;;;;;;;5.97;3.38;;;5.90;99.90;;;;;;12518103;28;20068;-83
2024/03/24 21:04:07;;;;;;;5.82;3.22;;;5.90;99.90;;;;;;12518496;28;20048;-81
2024/03/24 21:10:09;;;;;;;8.38;3.50;;;5.80;99.90;;;;;;12522627;28;20049;-82
2024/03/24 21:16:10;;;;;;;7.25;3.28;;;5.90;99.90;;;;;;12522392;28;20049;-81
2024/03/24 21:22:11;;;;;;;6.28;3.40;;;5.90;99.90;;;;;;12521451;28;20139;-81
2024/03/24 21:28:11;;;;;;;8.27;3.25;;;6.00;99.90;;;;;;12533983;28;20060;-85
2024/03/24 21:34:12;;;;;;;8.90;5.03;;;5.80;99.90;;;;;;12532899;28;20044;-80
2024/03/24 21:46:33;;;;;;;7.60;3.88;;;5.80;99.90;;;;;;12527618;28;20051;-90
2024/03/24 21:52:34;;;;;;;7.38;5.00;;;5.70;99.90;;;;;;12531372;28;20055;-85
2024/03/24 21:58:35;;;;;;;7.95;4.30;;;5.60;99.90;;;;;;12507520;28;20061;-79
2024/03/24 22:04:35;;;;;;;6.65;4.38;;;5.60;99.90;;;;;;12505169;28;20051;-80
2024/03/24 22:10:36;;;;;;;7.38;4.05;;;5.50;99.90;;;;;;12504775;28;20052;-81
2024/03/24 22:16:38;;;;;;;6.97;4.05;;;5.50;99.90;;;;;;12520295;28;20060;-81
2024/03/24 22:22:39;;;;;;;8.40;5.00;;;5.50;99.90;;;;;;12503399;28;20041;-81
2024/03/24 22:28:40;;;;;;;5.82;4.88;;;5.50;99.90;;;;;;12521490;28;20045;-83
2024/03/24 22:34:41;;;;;;;8.40;5.30;;;5.50;99.90;;;;;;12508703;28;20063;-82
2024/03/24 22:40:42;;;;;;;13.35;6.90;;;5.50;99.90;;;;;;12517178;28;20045;-82
2024/03/24 22:46:43;;;;;;;8.18;6.40;;;5.50;99.90;;;;;;12508723;28;20099;-85
2024/03/24 22:52:44;;;;;;;14.13;7.45;;;5.40;99.90;;;;;;12514344;28;20436;-82
2024/03/24 22:58:45;;;;;;;10.95;7.22;;;5.50;99.90;;;;;;12504808;28;20049;-82
2024/03/24 23:04:46;;;;;;;13.18;6.68;;;5.40;99.90;;;;;;12498538;28;20467;-82
2024/03/24 23:10:47;;;;;;;10.35;4.60;;;5.40;99.90;;;;;;12520677;28;20049;-81
2024/03/24 23:16:48;;;;;;;7.43;3.72;;;5.40;99.90;;;;;;12513655;28;20266;-85
2024/03/24 23:22:49;;;;;;;5.72;3.50;;;5.40;99.90;;;;;;12499807;28;20053;-81
2024/03/24 23:28:50;;;;;;;9.25;4.35;;;5.30;99.90;;;;;;12514957;28;20045;-80
2024/03/24 23:34:51;;;;;;;8.77;4.07;;;5.20;99.90;;;;;;12522365;28;20056;-80
2024/03/24 23:40:52;;;;;;;13.00;4.43;;;5.20;99.90;;;;;;12518046;28;20457;-82
2024/03/24 23:46:53;;;;;;;8.82;3.58;;;5.10;99.90;;;;;;12522398;28;20088;-82
2024/03/24 23:52:54;;;;;;;6.13;4.53;;;5.10;99.90;;;;;;12528881;28;20053;-80
2024/03/24 23:58:54;;;;;;;5.68;4.90;;;5.10;99.90;;;;;;12531174;28;20112;-88
